Time;durP1;ratioP1;P1;durP2;ratioP2;P2;SDS_P1;SDS_P2;PMS_P1;PMS_P2;Temp;Humidity;BMP_temperature;BMP_pressure;BME280_temperature;BME280_humidity;BME280_pressure;Samples;Min_cycle;Max_cycle;Signal;HPM_P1;HPM_P2
2023/03/30 00:00:41;;;;;;;;;;;;;;;20.18;43.75;100613.06;4964390;28;2566;-58
2023/03/30 00:03:08;;;;;;;;;;;;;;;20.17;43.75;100623.09;4963388;28;2299;-58
2023/03/30 00:05:35;;;;;;;;;;;;;;;20.17;43.73;100617.34;4960696;28;2641;-59
2023/03/30 00:08:01;;;;;;;;;;;;;;;20.16;43.72;100621.59;4962339;28;2642;-58
2023/03/30 00:10:28;;;;;;;;;;;;;;;20.15;43.82;100620.13;4956162;28;2596;-58
2023/03/30 00:12:55;;;;;;;;;;;;;;;20.19;43.75;100605.94;4957453;28;2980;-58
2023/03/30 00:15:21;;;;;;;;;;;;;;;20.20;44.03;100601.66;4961695;28;2772;-58
2023/03/30 00:17:48;;;;;;;;;;;;;;;20.20;44.02;100601.66;4958802;28;2401;-59
2023/03/30 00:20:14;;;;;;;;;;;;;;;20.17;43.95;100597.22;4960675;28;2594;-58
2023/03/30 00:22:40;;;;;;;;;;;;;;;20.16;44.09;100593.63;4958534;28;2714;-58
2023/03/30 00:25:07;;;;;;;;;;;;;;;20.15;44.06;100588.50;4960393;28;2712;-58
2023/03/30 00:27:34;;;;;;;;;;;;;;;20.15;44.04;100585.63;4957617;28;2776;-58
2023/03/30 00:30:01;;;;;;;;;;;;;;;20.14;44.00;100589.91;4962987;28;2708;-58
2023/03/30 00:32:28;;;;;;;;;;;;;;;20.13;44.05;100576.91;4948696;28;2897;-58
2023/03/30 00:34:54;;;;;;;;;;;;;;;20.12;44.02;100584.06;4959245;28;2569;-58
2023/03/30 00:37:20;;;;;;;;;;;;;;;20.12;44.05;100578.31;4956771;28;3445;-58
2023/03/30 00:39:47;;;;;;;;;;;;;;;20.12;43.97;100569.69;4961448;28;2720;-58
2023/03/30 00:42:14;;;;;;;;;;;;;;;20.12;44.01;100566.84;4958580;28;2872;-58
2023/03/30 00:45:00;;;;;;;;;;;;;;;20.10;44.03;100555.97;4960579;28;2702;-57
2023/03/30 00:47:27;;;;;;;;;;;;;;;20.09;44.09;100555.25;4963139;28;2687;-57
2023/03/30 00:49:53;;;;;;;;;;;;;;;20.09;44.17;100549.50;4937284;28;2572;-58
2023/03/30 00:52:23;;;;;;;;;;;;;;;20.09;44.03;100531.50;4965467;28;2602;-58
2023/03/30 00:54:50;;;;;;;;;;;;;;;20.08;44.18;100533.63;4964112;28;2523;-58
2023/03/30 00:57:16;;;;;;;;;;;;;;;20.08;44.24;100512.78;4967838;28;2603;-58
2023/03/30 00:59:43;;;;;;;;;;;;;;;20.08;44.10;100519.25;4945359;28;3089;-58
2023/03/30 01:02:09;;;;;;;;;;;;;;;20.08;44.14;100502.00;4946990;28;2723;-57
2023/03/30 01:04:36;;;;;;;;;;;;;;;20.06;44.14;100499.03;4966573;28;2747;-58
2023/03/30 01:07:03;;;;;;;;;;;;;;;20.06;44.01;100499.03;4963666;28;2696;-59
2023/03/30 01:09:29;;;;;;;;;;;;;;;20.06;44.19;100499.03;4961376;28;2722;-58
2023/03/30 01:11:55;;;;;;;;;;;;;;;20.06;44.07;100487.53;4963965;28;2444;-58
2023/03/30 01:14:23;;;;;;;;;;;;;;;20.05;44.08;100477.47;4964013;28;2807;-58
2023/03/30 01:16:55;;;;;;;;;;;;;;;20.07;44.14;100473.94;4950544;28;2360;-58
2023/03/30 01:19:42;;;;;;;;;;;;;;;20.06;44.10;100483.94;4962018;28;3081;-58
2023/03/30 01:22:35;;;;;;;;;;;;;;;20.06;44.09;100481.06;4943176;28;2739;-57
2023/03/30 01:25:20;;;;;;;;;;;;;;;20.04;44.14;100478.88;4924385;28;2685;-57
2023/03/30 01:28:06;;;;;;;;;;;;;;;20.04;44.22;100478.88;4931438;28;2366;-57
2023/03/30 01:30:50;;;;;;;;;;;;;;;20.04;44.18;100473.13;4959273;28;2661;-58
2023/03/30 01:33:36;;;;;;;;;;;;;;;20.04;44.16;100478.88;4923636;28;2983;-58
2023/03/30 01:36:21;;;;;;;;;;;;;;;20.02;44.10;100455.78;4967036;28;2604;-57
2023/03/30 01:39:06;;;;;;;;;;;;;;;20.02;44.18;100447.16;4959881;28;2702;-58
2023/03/30 01:41:34;;;;;;;;;;;;;;;20.02;44.13;100447.16;4927978;28;2698;-57
2023/03/30 01:44:03;;;;;;;;;;;;;;;20.02;44.22;100447.16;4948192;28;2757;-58
2023/03/30 01:46:30;;;;;;;;;;;;;;;20.01;44.22;100445.66;4951324;28;2654;-58
2023/03/30 01:49:09;;;;;;;;;;;;;;;20.01;44.11;100451.41;4961972;28;2598;-58
2023/03/30 01:51:37;;;;;;;;;;;;;;;20.00;44.17;100449.94;4962344;28;2625;-58
2023/03/30 02:34:38;;;;;;;;;;;;;;;19.95;44.32;100387.97;4935427;28;2783;-58
2023/03/30 02:37:08;;;;;;;;;;;;;;;19.95;44.40;100373.59;4915849;28;3164;-58
2023/03/30 02:39:41;;;;;;;;;;;;;;;19.95;44.36;100367.09;4939301;28;2578;-57
2023/03/30 02:42:15;;;;;;;;;;;;;;;19.95;44.39;100362.09;4931076;28;2640;-58
2023/03/30 02:44:49;;;;;;;;;;;;;;;19.95;44.31;100372.84;4945410;28;2655;-58
2023/03/30 02:47:18;;;;;;;;;;;;;;;19.95;44.34;100361.34;4946363;28;2728;-58
2023/03/30 02:50:14;;;;;;;;;;;;;;;19.96;44.34;100362.84;4967634;28;1835;-58
2023/03/30 02:52:58;;;;;;;;;;;;;;;19.98;44.17;100357.91;4932542;28;2753;-58
2023/03/30 02:55:33;;;;;;;;;;;;;;;20.01;44.23;100359.44;4943387;28;2628;-58
2023/03/30 02:58:30;;;;;;;;;;;;;;;20.04;44.28;100352.41;4963439;28;2733;-57
2023/03/30 03:01:18;;;;;;;;;;;;;;;20.06;44.31;100361.09;4941039;28;2379;-58
2023/03/30 03:03:57;;;;;;;;;;;;;;;20.06;44.14;100346.72;4935501;28;2841;-58
2023/03/30 03:06:24;;;;;;;;;;;;;;;20.08;44.44;100343.91;4956737;28;2709;-58
2023/03/30 03:08:53;;;;;;;;;;;;;;;20.10;44.28;100343.28;4944802;28;2602;-58
2023/03/30 03:11:23;;;;;;;;;;;;;;;20.10;44.37;100337.53;4941416;28;2536;-58
2023/03/30 03:13:49;;;;;;;;;;;;;;;20.08;44.44;100341.03;4963185;28;2568;-58
2023/03/30 03:16:15;;;;;;;;;;;;;;;20.09;44.53;100333.91;4963895;28;2662;-58
2023/03/30 03:19:00;;;;;;;;;;;;;;;20.11;44.45;100329.63;4944178;28;2417;-59
2023/03/30 03:21:27;;;;;;;;;;;;;;;20.11;44.36;100332.50;4960172;28;2804;-58
2023/03/30 03:23:53;;;;;;;;;;;;;;;20.12;44.54;100334.00;4939640;28;2729;-59
2023/03/30 03:26:21;;;;;;;;;;;;;;;20.12;44.58;100334.72;4939554;28;2557;-58
2023/03/30 03:28:48;;;;;;;;;;;;;;;20.13;44.28;100327.56;4963143;28;2694;-58
2023/03/30 03:31:14;;;;;;;;;;;;;;;20.15;44.21;100316.16;4939662;28;2719;-58
2023/03/30 03:33:41;;;;;;;;;;;;;;;20.15;44.26;100321.16;4957024;28;2776;-59
2023/03/30 03:36:36;;;;;;;;;;;;;;;20.16;44.30;100305.38;4941358;28;2931;-58
2023/03/30 03:39:03;;;;;;;;;;;;;;;20.15;44.25;100303.94;4939687;28;2624;-58
2023/03/30 03:41:30;;;;;;;;;;;;;;;20.15;44.44;100296.03;4956320;28;2664;-57
2023/03/30 03:43:56;;;;;;;;;;;;;;;20.15;44.33;100286.69;4943270;28;2738;-57
2023/03/30 03:46:23;;;;;;;;;;;;;;;20.16;44.38;100285.25;4963083;28;3074;-57
2023/03/30 03:48:50;;;;;;;;;;;;;;;20.15;44.48;100270.16;4933916;28;2728;-58
2023/03/30 03:51:16;;;;;;;;;;;;;;;20.14;44.49;100280.19;4963911;28;2445;-58
2023/03/30 03:53:42;;;;;;;;;;;;;;;20.15;44.39;100280.94;4944132;28;2683;-58
2023/03/30 03:56:11;;;;;;;;;;;;;;;20.16;44.49;100276.66;4961920;28;2844;-57
2023/03/30 03:58:37;;;;;;;;;;;;;;;20.16;44.50;100270.91;4944730;28;2695;-58
2023/03/30 04:01:05;;;;;;;;;;;;;;;20.17;44.37;100260.88;4946338;28;2655;-58
2023/03/30 04:03:32;;;;;;;;;;;;;;;20.17;44.36;100261.63;4960028;28;2630;-58
2023/03/30 04:05:59;;;;;;;;;;;;;;;20.17;44.34;100255.88;4962249;28;2580;-58
2023/03/30 04:08:27;;;;;;;;;;;;;;;20.18;44.37;100250.84;4960484;28;2707;-58
2023/03/30 04:10:56;;;;;;;;;;;;;;;20.19;44.37;100258.81;4957360;28;2799;-58
2023/03/30 04:13:31;;;;;;;;;;;;;;;20.20;44.43;100256.69;4935987;28;2778;-58
2023/03/30 04:16:14;;;;;;;;;;;;;;;20.20;44.41;100239.44;4961344;28;2574;-57
2023/03/30 04:18:59;;;;;;;;;;;;;;;20.19;44.42;100235.09;4961339;28;2734;-58
2023/03/30 04:21:51;;;;;;;;;;;;;;;20.20;44.52;100236.56;4963627;28;2689;-58
2023/03/30 04:24:51;;;;;;;;;;;;;;;20.18;44.48;100222.09;4968555;28;1774;-58
2023/03/30 04:27:41;;;;;;;;;;;;;;;20.18;44.60;100227.84;4958401;28;2705;-57
2023/03/30 04:30:29;;;;;;;;;;;;;;;20.19;44.55;100226.47;4961269;28;2753;-57
2023/03/30 04:33:33;;;;;;;;;;;;;;;20.19;44.46;100229.34;4959711;28;2864;-58
2023/03/30 04:36:31;;;;;;;;;;;;;;;20.19;44.50;100224.31;4949201;28;2515;-58
2023/03/30 04:39:17;;;;;;;;;;;;;;;20.20;44.38;100225.06;4965450;28;2561;-58
2023/03/30 04:42:06;;;;;;;;;;;;;;;20.21;44.23;100220.81;4964722;28;2655;-58
2023/03/30 04:44:45;;;;;;;;;;;;;;;20.23;44.45;100229.50;4942082;28;2705;-58
2023/03/30 04:47:41;;;;;;;;;;;;;;;20.23;44.40;100235.25;4949106;28;2789;-58
2023/03/30 04:50:33;;;;;;;;;;;;;;;20.23;44.27;100230.22;4963360;28;2691;-57
2023/03/30 04:53:18;;;;;;;;;;;;;;;20.25;44.45;100229.59;4963729;28;2722;-58
2023/03/30 04:56:03;;;;;;;;;;;;;;;20.25;44.42;100223.81;4968788;28;2746;-58
2023/03/30 04:58:37;;;;;;;;;;;;;;;20.24;44.41;100213.72;4937561;28;2695;-57
2023/03/30 05:01:21;;;;;;;;;;;;;;;20.24;44.44;100202.22;4938378;28;2760;-58
2023/03/30 05:04:05;;;;;;;;;;;;;;;20.23;44.49;100192.13;4943948;28;2684;-57
2023/03/30 05:06:50;;;;;;;;;;;;;;;20.22;44.49;100197.13;4965034;28;2709;-58
2023/03/30 05:09:39;;;;;;;;;;;;;;;20.22;44.61;100177.00;4945878;28;2697;-58
2023/03/30 05:12:24;;;;;;;;;;;;;;;20.23;44.62;100178.47;4962975;28;2804;-57
2023/03/30 05:15:05;;;;;;;;;;;;;;;20.23;44.45;100164.13;4949261;28;2719;-57
2023/03/30 05:18:07;;;;;;;;;;;;;;;20.25;44.59;100158.44;4934311;28;2792;-58
2023/03/30 05:20:47;;;;;;;;;;;;;;;20.24;44.51;100154.06;4947048;28;2716;-58
2023/03/30 05:23:26;;;;;;;;;;;;;;;20.28;44.50;100167.88;4960930;28;2715;-58
2023/03/30 05:26:15;;;;;;;;;;;;;;;20.27;44.43;100172.88;4946795;28;2792;-58
2023/03/30 05:28:55;;;;;;;;;;;;;;;20.27;44.55;100167.13;4938805;28;2565;-58
2023/03/30 05:31:35;;;;;;;;;;;;;;;20.26;44.65;100176.41;4942407;28;2852;-57
2023/03/30 05:34:04;;;;;;;;;;;;;;;20.27;44.45;100172.13;4956684;28;2804;-58
2023/03/30 05:36:43;;;;;;;;;;;;;;;20.26;44.49;100168.53;4946734;28;2794;-57
2023/03/30 05:39:27;;;;;;;;;;;;;;;20.26;44.58;100162.78;4959239;28;2705;-58
2023/03/30 05:42:29;;;;;;;;;;;;;;;20.27;44.65;100166.38;4899118;29;2627;-57
2023/03/30 05:45:14;;;;;;;;;;;;;;;20.25;44.61;100163.47;4953683;28;2540;-57
2023/03/30 05:48:16;;;;;;;;;;;;;;;20.25;44.54;100158.44;4915277;29;2695;-59
2023/03/30 05:50:56;;;;;;;;;;;;;;;20.27;44.61;100166.38;4936439;28;2796;-58
2023/03/30 05:53:32;;;;;;;;;;;;;;;20.28;44.67;100153.50;4961004;28;3024;-58
2023/03/30 05:56:23;;;;;;;;;;;;;;;20.29;44.60;100140.56;4947952;28;2706;-55
2023/03/30 05:58:55;;;;;;;;;;;;;;;20.29;44.44;100146.34;4951495;28;2752;-58
2023/03/30 06:01:46;;;;;;;;;;;;;;;20.33;44.62;100137.84;4960241;28;2751;-60
2023/03/30 06:04:12;;;;;;;;;;;;;;;19.54;45.60;100147.91;4949440;28;2664;-57
2023/03/30 06:06:40;;;;;;;;;;;;;;;19.35;45.76;100142.84;4932912;28;2886;-60
2023/03/30 06:09:07;;;;;;;;;;;;;;;19.79;48.01;100143.09;4933946;28;4240;-61
2023/03/30 06:11:35;;;;;;;;;;;;;;;19.92;46.81;100136.41;4958382;28;4118;-61
2023/03/30 06:14:10;;;;;;;;;;;;;;;19.97;46.66;100128.66;4940752;28;2860;-60
2023/03/30 06:16:39;;;;;;;;;;;;;;;18.48;47.04;100120.66;4941421;28;4306;-63
2023/03/30 06:19:06;;;;;;;;;;;;;;;17.79;48.42;100130.53;4938791;28;2873;-62
2023/03/30 06:21:33;;;;;;;;;;;;;;;17.69;48.91;100132.97;4950062;28;3111;-61
2023/03/30 06:24:08;;;;;;;;;;;;;;;17.58;48.92;100134.63;4961054;28;2950;-60
2023/03/30 06:26:37;;;;;;;;;;;;;;;17.23;49.56;100132.28;4943198;28;2868;-61
2023/03/30 06:29:03;;;;;;;;;;;;;;;17.79;49.84;100133.41;4931490;28;4132;-66
2023/03/30 06:31:30;;;;;;;;;;;;;;;18.46;47.92;100123.44;4936690;28;2985;-60
2023/03/30 06:34:19;;;;;;;;;;;;;;;18.31;47.30;100116.38;4957298;28;2796;-60
2023/03/30 06:36:45;;;;;;;;;;;;;;;18.09;47.84;100133.31;4948453;28;2619;-62
2023/03/30 06:39:14;;;;;;;;;;;;;;;18.00;47.71;100126.50;4948002;28;2831;-62
2023/03/30 06:41:41;;;;;;;;;;;;;;;17.74;48.45;100137.47;4949211;28;3033;-62
2023/03/30 06:44:22;;;;;;;;;;;;;;;17.14;49.56;100117.56;4956453;28;2931;-62
2023/03/30 06:46:49;;;;;;;;;;;;;;;18.13;48.20;100116.31;4939788;28;2791;-60
2023/03/30 06:49:15;;;;;;;;;;;;;;;19.19;46.39;100108.50;4935647;28;2981;-62
2023/03/30 06:51:42;;;;;;;;;;;;;;;19.63;45.45;100105.84;4962282;28;2579;-59
2023/03/30 06:54:10;;;;;;;;;;;;;;;19.71;45.35;100099.72;4959603;28;2876;-60
2023/03/30 06:56:41;;;;;;;;;;;;;;;19.89;45.10;100091.75;4938537;28;2954;-62
2023/03/30 06:59:11;;;;;;;;;;;;;;;19.99;44.86;100086.38;4959542;28;2938;-59
2023/03/30 07:01:56;;;;;;;;;;;;;;;20.01;44.86;100095.06;4965363;28;2870;-61
2023/03/30 07:04:45;;;;;;;;;;;;;;;20.07;44.38;100085.94;4961292;28;2819;-61
2023/03/30 07:07:31;;;;;;;;;;;;;;;19.88;44.79;100085.28;4957551;28;2748;-61
2023/03/30 07:09:57;;;;;;;;;;;;;;;20.29;45.00;100083.09;4949606;28;2845;-61
2023/03/30 07:12:24;;;;;;;;;;;;;;;20.38;44.53;100073.31;4940668;28;2833;-62
2023/03/30 07:14:50;;;;;;;;;;;;;;;20.42;44.27;100075.63;4958224;28;4009;-60
2023/03/30 07:17:17;;;;;;;;;;;;;;;20.50;44.20;100068.00;4949506;28;2868;-59
2023/03/30 07:19:43;;;;;;;;;;;;;;;20.45;44.19;100062.75;4960864;28;2815;-59
2023/03/30 07:22:10;;;;;;;;;;;;;;;20.28;44.10;100064.38;4938333;28;2839;-57
2023/03/30 07:24:36;;;;;;;;;;;;;;;20.14;44.52;100061.03;4960974;28;2912;-59
2023/03/30 07:27:03;;;;;;;;;;;;;;;20.08;44.61;100053.63;4958976;28;2940;-62
2023/03/30 07:29:30;;;;;;;;;;;;;;;20.04;44.58;100053.50;4958581;28;2995;-59
2023/03/30 07:31:56;;;;;;;;;;;;;;;20.03;44.55;100045.56;4963417;28;2871;-60
2023/03/30 07:34:22;;;;;;;;;;;;;;;20.00;44.62;100047.63;4957962;28;4167;-58
2023/03/30 07:36:53;;;;;;;;;;;;;;;20.03;44.55;100051.28;4957605;28;3130;-59
2023/03/30 07:39:21;;;;;;;;;;;;;;;20.02;44.64;100050.56;4958438;28;3080;-59
2023/03/30 07:41:49;;;;;;;;;;;;;;;20.05;44.61;100051.38;4955756;28;3379;-59
2023/03/30 07:44:16;;;;;;;;;;;;;;;20.02;44.57;100039.06;4946893;28;2755;-59
2023/03/30 07:46:43;;;;;;;;;;;;;;;20.02;44.57;100049.81;4965061;28;2870;-59
2023/03/30 07:49:15;;;;;;;;;;;;;;;20.02;44.53;100032.56;4952560;28;3059;-58
2023/03/30 07:51:42;;;;;;;;;;;;;;;20.04;44.46;100036.28;4936192;28;3037;-60
2023/03/30 07:54:18;;;;;;;;;;;;;;;19.44;45.09;100052.75;4960247;28;4079;-58
2023/03/30 07:56:57;;;;;;;;;;;;;;;18.92;45.67;100055.81;4943375;28;2960;-59
2023/03/30 07:59:24;;;;;;;;;;;;;;;19.32;45.38;100058.03;4959734;28;2735;-59
2023/03/30 08:01:55;;;;;;;;;;;;;;;19.70;44.50;100055.13;4937436;28;3005;-59
2023/03/30 08:04:36;;;;;;;;;;;;;;;19.85;44.46;100042.75;4939765;28;3072;-60
2023/03/30 08:07:03;;;;;;;;;;;;;;;19.90;44.38;100040.78;4964829;28;2735;-59
2023/03/30 08:09:30;;;;;;;;;;;;;;;20.00;44.13;100035.41;4940542;28;2983;-60
2023/03/30 08:11:56;;;;;;;;;;;;;;;20.04;44.39;100042.03;4963392;28;2959;-61
2023/03/30 08:14:25;;;;;;;;;;;;;;;20.14;45.01;100049.53;4954931;28;3099;-67
2023/03/30 08:16:52;;;;;;;;;;;;;;;20.17;44.31;100028.78;4956017;28;2883;-64
2023/03/30 08:19:19;;;;;;;;;;;;;;;20.37;44.98;100031.63;4950960;28;2951;-69
2023/03/30 08:21:46;;;;;;;;;;;;;;;20.54;44.57;100018.50;4961247;28;2740;-71
2023/03/30 08:24:12;;;;;;;;;;;;;;;20.62;44.49;100020.94;4962456;28;2781;-70
2023/03/30 08:26:38;;;;;;;;;;;;;;;20.66;44.15;100010.28;4959114;28;2671;-72
2023/03/30 08:29:05;;;;;;;;;;;;;;;20.72;44.19;100012.63;4959976;28;3091;-72
2023/03/30 08:31:32;;;;;;;;;;;;;;;20.75;44.27;100011.25;4959337;28;2860;-71
2023/03/30 08:33:58;;;;;;;;;;;;;;;20.79;44.22;100014.28;4959203;28;2850;-71
2023/03/30 08:36:25;;;;;;;;;;;;;;;20.81;44.09;100022.25;4963347;28;2647;-69
2023/03/30 08:38:53;;;;;;;;;;;;;;;20.84;44.13;100024.50;4962186;28;2777;-70
2023/03/30 08:41:19;;;;;;;;;;;;;;;20.86;44.05;100027.44;4958428;28;3086;-70
2023/03/30 08:43:47;;;;;;;;;;;;;;;20.91;44.25;100008.91;4959792;28;2841;-68
2023/03/30 08:46:14;;;;;;;;;;;;;;;20.98;44.14;100006.19;4957133;28;2849;-68
2023/03/30 08:48:41;;;;;;;;;;;;;;;21.03;44.25;100010.69;4961590;28;2617;-71
2023/03/30 08:51:18;;;;;;;;;;;;;;;21.07;44.18;100005.03;4956153;28;2822;-70
2023/03/30 08:53:44;;;;;;;;;;;;;;;21.14;44.15;100009.56;4943939;28;2910;-72
2023/03/30 08:56:19;;;;;;;;;;;;;;;21.30;44.00;100010.06;4957937;28;2804;-69
2023/03/30 08:58:45;;;;;;;;;;;;;;;21.39;43.41;99993.72;4944368;28;2896;-69
2023/03/30 09:01:17;;;;;;;;;;;;;;;21.41;43.73;100004.59;4964360;28;2885;-69
2023/03/30 09:04:04;;;;;;;;;;;;;;;21.29;43.62;100004.97;4961501;28;2568;-68
2023/03/30 09:06:38;;;;;;;;;;;;;;;21.20;43.68;100014.78;4950202;28;2956;-68
2023/03/30 09:09:06;;;;;;;;;;;;;;;21.30;44.41;100015.81;4953964;28;4190;-69
2023/03/30 09:11:32;;;;;;;;;;;;;;;21.40;44.19;100018.28;4961257;28;2940;-68
2023/03/30 09:14:01;;;;;;;;;;;;;;;21.45;43.95;100016.25;4949827;28;2912;-67
2023/03/30 09:16:32;;;;;;;;;;;;;;;21.44;44.09;100018.41;4965805;28;2509;-68
2023/03/30 09:18:58;;;;;;;;;;;;;;;21.33;44.23;100014.47;4965526;28;2792;-77
2023/03/30 09:21:30;;;;;;;;;;;;;;;21.47;44.07;100016.31;4938607;28;4497;-68
2023/03/30 09:23:57;;;;;;;;;;;;;;;21.51;44.18;99993.38;4956739;28;2785;-67
2023/03/30 09:26:33;;;;;;;;;;;;;;;21.56;44.18;100006.47;4967087;28;2681;-67
2023/03/30 09:29:05;;;;;;;;;;;;;;;21.65;43.79;99993.03;4947987;28;2814;-67
2023/03/30 09:31:36;;;;;;;;;;;;;;;21.67;43.93;99999.59;4949500;28;3023;-68
2023/03/30 09:34:03;;;;;;;;;;;;;;;21.71;43.68;100005.44;4951432;28;2850;-67
2023/03/30 09:36:38;;;;;;;;;;;;;;;21.61;43.80;100010.94;4952080;28;4487;-66
2023/03/30 09:39:08;;;;;;;;;;;;;;;21.53;43.97;100008.56;4966448;28;2825;-68
2023/03/30 09:41:40;;;;;;;;;;;;;;;21.53;43.95;100013.56;4964717;28;3030;-69
2023/03/30 09:44:10;;;;;;;;;;;;;;;21.53;43.97;100007.81;4952867;28;4361;-69
2023/03/30 09:46:36;;;;;;;;;;;;;;;21.51;43.88;100005.63;4953985;28;4787;-66
2023/03/30 09:49:13;;;;;;;;;;;;;;;21.56;44.22;100006.47;4959526;28;2632;-66
2023/03/30 09:51:53;;;;;;;;;;;;;;;21.61;43.80;100001.56;4961302;28;2685;-67
2023/03/30 09:54:20;;;;;;;;;;;;;;;21.45;44.38;100007.59;4962467;28;2694;-66
2023/03/30 09:56:50;;;;;;;;;;;;;;;21.46;44.28;100009.81;4930877;28;4309;-65
2023/03/30 09:59:21;;;;;;;;;;;;;;;21.38;44.72;100015.31;4958260;28;4517;-64
2023/03/30 10:01:47;;;;;;;;;;;;;;;21.27;45.14;100011.38;4965535;28;2481;-67
2023/03/30 10:04:15;;;;;;;;;;;;;;;21.22;44.78;100015.56;4964071;28;2797;-68
2023/03/30 10:06:45;;;;;;;;;;;;;;;21.23;44.63;100022.78;4955106;28;4738;-68
2023/03/30 10:09:12;;;;;;;;;;;;;;;21.24;44.95;100023.53;4964036;28;2622;-69
2023/03/30 10:11:42;;;;;;;;;;;;;;;21.25;44.96;100019.97;4965319;28;2792;-65
2023/03/30 10:14:26;;;;;;;;;;;;;;;21.27;44.87;100017.16;4967219;28;2710;-65
2023/03/30 10:16:54;;;;;;;;;;;;;;;21.31;45.33;100020.16;4966325;28;2678;-66
2023/03/30 10:19:21;;;;;;;;;;;;;;;21.56;44.54;100023.03;4958170;28;2731;-65
2023/03/30 10:21:47;;;;;;;;;;;;;;;21.63;44.41;100022.53;4967132;28;2729;-62
2023/03/30 10:24:13;;;;;;;;;;;;;;;21.61;44.17;100028.22;4941563;28;4594;-65
2023/03/30 10:26:43;;;;;;;;;;;;;;;21.37;44.53;100033.25;4964812;28;2867;-60
2023/03/30 10:29:15;;;;;;;;;;;;;;;21.30;44.90;100020.81;4965277;28;2843;-61
2023/03/30 10:31:41;;;;;;;;;;;;;;;21.21;44.78;100014.13;4962579;28;2906;-60
2023/03/30 10:34:15;;;;;;;;;;;;;;;21.07;44.84;100007.91;4962782;28;2775;-60
2023/03/30 10:36:42;;;;;;;;;;;;;;;20.93;45.11;100014.69;4966208;28;2987;-61
2023/03/30 10:39:27;;;;;;;;;;;;;;;20.95;45.21;100007.56;4967045;28;3156;-59
2023/03/30 10:41:53;;;;;;;;;;;;;;;20.96;45.12;100006.13;4957830;28;2937;-59
2023/03/30 10:44:33;;;;;;;;;;;;;;;20.87;45.34;100000.16;4958544;28;4534;-59
2023/03/30 10:47:13;;;;;;;;;;;;;;;20.87;45.65;99994.41;4967130;28;2948;-60
2023/03/30 10:49:43;;;;;;;;;;;;;;;21.32;46.31;99994.97;4944738;28;2802;-59
2023/03/30 10:52:17;;;;;;;;;;;;;;;21.50;45.59;100003.44;4946316;28;3133;-60
2023/03/30 10:54:45;;;;;;;;;;;;;;;21.42;45.08;99997.44;4956784;28;2762;-59
2023/03/30 10:57:12;;;;;;;;;;;;;;;21.28;45.15;99995.59;4955961;28;2778;-61
2023/03/30 10:59:49;;;;;;;;;;;;;;;21.30;44.55;99997.78;4962508;28;3138;-59
2023/03/30 11:02:21;;;;;;;;;;;;;;;21.12;45.08;99998.75;4963449;28;4384;-59
2023/03/30 11:04:48;;;;;;;;;;;;;;;21.18;45.15;100001.06;4962604;28;2765;-61
2023/03/30 11:07:16;;;;;;;;;;;;;;;21.40;44.35;100006.00;4952819;28;4336;-61
2023/03/30 11:09:50;;;;;;;;;;;;;;;21.43;44.44;99998.91;4948354;28;4608;-59
2023/03/30 11:12:19;;;;;;;;;;;;;;;21.47;44.42;99991.13;4943751;28;2781;-60
2023/03/30 11:14:46;;;;;;;;;;;;;;;21.56;44.34;99992.06;4945449;28;2900;-60
2023/03/30 11:17:16;;;;;;;;;;;;;;;21.67;44.15;99996.72;4943528;28;2953;-60
2023/03/30 11:19:44;;;;;;;;;;;;;;;21.25;44.42;99996.19;4957324;28;2765;-58
2023/03/30 11:22:16;;;;;;;;;;;;;;;21.11;44.93;99982.84;4955665;28;2857;-61
2023/03/30 11:24:42;;;;;;;;;;;;;;;21.09;45.29;99987.81;4962452;28;2888;-59
2023/03/30 11:27:38;;;;;;;;;;;;;;;20.92;45.58;99984.47;4955537;28;3234;-60
2023/03/30 11:30:08;;;;;;;;;;;;;;;20.92;45.71;99981.59;4946568;28;2775;-61
2023/03/30 11:32:42;;;;;;;;;;;;;;;21.18;45.51;99980.16;4955610;28;4388;-59
2023/03/30 11:35:25;;;;;;;;;;;;;;;21.32;45.15;99981.28;4953440;28;2943;-58
2023/03/30 11:37:52;;;;;;;;;;;;;;;21.40;45.05;99965.69;4943186;28;2921;-60
2023/03/30 11:40:23;;;;;;;;;;;;;;;21.19;45.59;99973.00;4952164;28;4341;-63
2023/03/30 11:42:52;;;;;;;;;;;;;;;21.34;45.70;99958.31;4939086;28;2613;-64
2023/03/30 11:45:19;;;;;;;;;;;;;;;21.42;45.59;99952.09;4960772;28;2705;-62
2023/03/30 11:48:04;;;;;;;;;;;;;;;21.38;45.60;99954.09;4955853;28;2697;-67
2023/03/30 11:50:33;;;;;;;;;;;;;;;21.29;45.60;99950.25;4959941;28;2806;-65
2023/03/30 11:53:05;;;;;;;;;;;;;;;21.38;45.68;99937.56;4954862;28;2963;-65
2023/03/30 11:55:40;;;;;;;;;;;;;;;21.30;45.99;99935.19;4937482;28;3056;-65
2023/03/30 11:58:13;;;;;;;;;;;;;;;21.37;45.98;99933.19;4940149;28;2957;-64
2023/03/30 12:00:42;;;;;;;;;;;;;;;21.41;46.36;99915.31;4957668;28;2804;-63
2023/03/30 12:03:12;;;;;;;;;;;;;;;21.56;46.16;99908.53;4949654;28;2887;-63
2023/03/30 12:05:39;;;;;;;;;;;;;;;21.73;46.15;99898.16;4960173;28;3273;-65
2023/03/30 12:08:24;;;;;;;;;;;;;;;21.90;45.91;99902.19;4940798;28;2888;-66
2023/03/30 12:10:54;;;;;;;;;;;;;;;21.95;45.82;99900.88;4960587;28;2859;-64
2023/03/30 12:13:20;;;;;;;;;;;;;;;22.01;46.09;99898.13;4943515;28;4080;-60
2023/03/30 12:15:59;;;;;;;;;;;;;;;22.11;46.16;99895.50;4959281;28;2928;-68
2023/03/30 12:18:26;;;;;;;;;;;;;;;22.08;45.85;99885.34;4954631;28;2806;-69
2023/03/30 12:20:54;;;;;;;;;;;;;;;22.12;46.17;99885.41;4957729;28;2916;-67
2023/03/30 12:23:21;;;;;;;;;;;;;;;22.24;46.52;99875.63;4958514;28;3182;-66
2023/03/30 12:25:50;;;;;;;;;;;;;;;22.31;45.97;99862.81;4961626;28;2886;-68
2023/03/30 12:28:16;;;;;;;;;;;;;;;22.02;46.72;99861.41;4956099;28;2752;-65
2023/03/30 12:31:01;;;;;;;;;;;;;;;22.02;46.53;99864.28;4951923;28;2872;-63
2023/03/30 12:33:28;;;;;;;;;;;;;;;21.75;47.06;99849.22;4958333;28;2765;-63
2023/03/30 12:35:55;;;;;;;;;;;;;;;21.56;47.50;99839.41;4957102;28;4591;-62
2023/03/30 12:38:24;;;;;;;;;;;;;;;21.61;47.55;99843.13;4953691;28;2693;-61
2023/03/30 12:40:54;;;;;;;;;;;;;;;21.60;47.52;99827.25;4962856;28;3114;-64
2023/03/30 12:43:23;;;;;;;;;;;;;;;21.62;47.63;99833.78;4967716;28;2637;-65
2023/03/30 12:46:00;;;;;;;;;;;;;;;21.66;47.29;99822.38;4941871;28;2976;-64
2023/03/30 12:48:42;;;;;;;;;;;;;;;21.66;47.64;99813.72;4960160;28;2882;-65
2023/03/30 12:51:20;;;;;;;;;;;;;;;21.71;47.49;99815.28;4964985;28;2769;-67
2023/03/30 12:54:02;;;;;;;;;;;;;;;22.05;47.02;99811.03;4959705;28;2951;-69
2023/03/30 12:56:43;;;;;;;;;;;;;;;22.05;46.69;99800.22;4964835;28;2658;-69
2023/03/30 12:59:23;;;;;;;;;;;;;;;22.23;46.29;99797.03;4963296;28;2806;-67
2023/03/30 13:01:58;;;;;;;;;;;;;;;22.13;46.18;99806.19;4958269;28;2904;-63
2023/03/30 13:04:25;;;;;;;;;;;;;;;21.82;46.93;99790.31;4938114;28;3962;-62
2023/03/30 13:06:52;;;;;;;;;;;;;;;21.88;47.20;99798.41;4963863;28;2998;-63
2023/03/30 13:09:18;;;;;;;;;;;;;;;22.02;46.81;99798.72;4933404;28;4052;-63
2023/03/30 13:11:45;;;;;;;;;;;;;;;21.85;46.81;99793.97;4959205;28;3891;-60
2023/03/30 13:14:24;;;;;;;;;;;;;;;21.57;47.56;99796.94;4951422;28;2781;-59
2023/03/30 13:16:51;;;;;;;;;;;;;;;21.52;47.63;99793.22;4954471;28;2840;-59
2023/03/30 13:19:21;;;;;;;;;;;;;;;21.57;47.59;99789.00;4960770;28;2822;-59
2023/03/30 13:21:48;;;;;;;;;;;;;;;21.63;47.79;99780.53;4942012;28;2746;-61
2023/03/30 13:24:41;;;;;;;;;;;;;;;21.75;47.28;99780.81;4956423;28;2831;-61
2023/03/30 13:27:13;;;;;;;;;;;;;;;21.80;47.31;99789.56;4950784;28;4120;-62
2023/03/30 13:29:39;;;;;;;;;;;;;;;21.66;47.16;99790.69;4951578;28;3868;-60
2023/03/30 13:32:06;;;;;;;;;;;;;;;21.65;47.17;99800.75;4947178;28;2918;-60
2023/03/30 13:34:37;;;;;;;;;;;;;;;21.66;47.18;99813.72;4958047;28;2781;-61
2023/03/30 13:37:22;;;;;;;;;;;;;;;21.62;47.27;99836.66;4938183;28;2896;-61
2023/03/30 13:39:54;;;;;;;;;;;;;;;21.55;47.72;99889.78;4954692;28;2776;-62
2023/03/30 13:42:31;;;;;;;;;;;;;;;21.80;47.57;99901.94;4950062;28;3003;-63
2023/03/30 13:45:07;;;;;;;;;;;;;;;21.56;47.42;99902.78;4949978;28;2912;-60
2023/03/30 13:47:46;;;;;;;;;;;;;;;21.48;47.65;99905.44;4954530;28;2662;-61
2023/03/30 13:50:14;;;;;;;;;;;;;;;21.47;47.60;99929.91;4940319;28;2835;-60
2023/03/30 13:52:44;;;;;;;;;;;;;;;21.75;47.94;99915.50;4952287;28;4295;-60
2023/03/30 13:55:15;;;;;;;;;;;;;;;21.78;47.65;99905.50;4949145;28;3116;-66
2023/03/30 13:57:43;;;;;;;;;;;;;;;21.83;47.58;99897.69;4952210;28;2760;-67
2023/03/30 14:00:31;;;;;;;;;;;;;;;21.90;47.48;99917.34;4958469;28;2710;-65